Meteo Giornale » Osservazioni meteo Stati Uniti (USA) » Rexburg-Madison
ore: 01:53 - Osservazioni Meteo Rexburg-Madison
Lat. 43° 49' N Lon. 111° 48' W Alt. 1481 metri s.l.m.
17 °C
Molto Nuvoloso
Temp. 24 Ore
4 °C
26 °C
Sud
25.9 Km/h
Dew point 9 °C
Umidità 59 %
Visibilità 10 Km
Il sole sorge alle ore 06:51
Il sole tramonta alle ore 20:03
| Data e Ora | Cielo e Fenomeni | T °C | DP °C | Um. % | Pres. hPa | Vis. km | Vento km/h | |
|---|---|---|---|---|---|---|---|---|
| Oggi h: 01:53 | Molto Nuvoloso | 17 | 9 | 59 | 1019 | 10 | S 25.9 | |
| Oggi h: 00:53 | Molto Nuvoloso | 19 | 8 | 48 | 1018 | 10 | S 22.2 | |
| Ieri h: 23:53 | Poco Nuvoloso | 19 | 9 | 52 | 1018 | 10 | S/SO 20.3 | |
| Ieri h: 22:53 | Sereno | 21 | 6 | 37 | 1016 | 10 | S 7.4 | |
| Ieri h: 21:53 | Sereno | 22 | 6 | 35 | 1017 | 10 | S 18.5 | |
| Ieri h: 20:53 | Sereno | 22 | 5 | 32 | 1016 | 10 | N 5.5 | |
| Ieri h: 19:53 | Sereno | 23 | 5 | 31 | 1016 | 10 | N 5.5 | |
| Ieri h: 18:53 | Sereno | 25 | 3 | 23 | 1016 | 10 | N 0 | |
| Ieri h: 17:53 | Sereno | 26 | 1 | 19 | 1016 | 10 | N 5.5 | |
| Ieri h: 16:53 | Sereno | 26 | -1 | 16 | 1017 | 10 | O/SO 9.3 | |
| Ieri h: 15:53 | Sereno | 26 | -1 | 16 | 1017 | 10 | N 5.5 | |
| Ieri h: 14:53 | Sereno | 25 | -1 | 17 | 1018 | 10 | NO 7.4 | |
| Ieri h: 13:53 | Sereno | 24 | -2 | 17 | 1019 | 10 | N 5.5 | |
| Ieri h: 12:53 | Sereno | 22 | -1 | 21 | 1020 | 10 | N 7.4 | |
| Ieri h: 11:53 | Sereno | 20 | -1 | 24 | 1021 | 10 | N 5.5 | |
| Ieri h: 10:53 | Sereno | 17 | 2 | 36 | 1021 | 10 | N 5.5 | |
| Ieri h: 09:53 | Sereno | 13 | 2 | 47 | 1021 | 10 | N 5.5 | |
| Ieri h: 08:53 | Sereno | 10 | 2 | 57 | 1021 | 10 | N 5.5 | |
| Ieri h: 07:53 | Sereno | 5 | 0 | 70 | 1021 | 10 | NE 7.4 | |
| Ieri h: 06:53 | Sereno | 4 | -1 | 69 | 1020 | 10 | N 5.5 | |
| Ieri h: 05:53 | Sereno | 4 | 0 | 75 | 1020 | 10 | N 5.5 | |
| Ieri h: 04:53 | Sereno | 4 | -1 | 69 | 1020 | 10 | N 5.5 | |
| Ieri h: 03:53 | Sereno | 6 | -1 | 60 | 1019 | 10 | N 7.4 | |
| Ieri h: 02:53 | Sereno | 13 | -5 | 28 | 1019 | 10 | S/SO 11.1 | |



